createdAt,value
2022-08-07T00:00:33.216Z,66.31
2022-08-07T00:01:44.394Z,66.44
2022-08-07T00:02:41.130Z,66.49
2022-08-07T00:03:36.834Z,66.62
2022-08-07T00:04:24.407Z,66.86
2022-08-07T00:05:11.846Z,66.78
2022-08-07T00:05:59.217Z,66.89
2022-08-07T00:06:51.744Z,67.14
2022-08-07T00:07:40.891Z,67.01
2022-08-07T00:08:28.617Z,66.92
2022-08-07T00:09:21.068Z,66.95
2022-08-07T00:10:26.015Z,67.06
2022-08-07T00:11:14.515Z,67.17
2022-08-07T00:12:07.025Z,66.38
2022-08-07T00:13:00.295Z,66.10
2022-08-07T00:13:48.545Z,66.27
2022-08-07T00:14:38.075Z,66.29
2022-08-07T00:15:35.952Z,66.33
2022-08-07T00:16:27.888Z,66.22
2022-08-07T00:17:15.108Z,66.32
2022-08-07T00:18:03.974Z,66.20
2022-08-07T00:18:50.834Z,66.10
2022-08-07T00:20:00.884Z,65.84
2022-08-07T00:20:44.624Z,66.04
2022-08-07T00:21:56.222Z,66.34
2022-08-07T00:22:39.446Z,66.52
2022-08-07T00:23:30.553Z,66.33
2022-08-07T00:24:17.505Z,66.13
2022-08-07T00:25:06.954Z,66.17
2022-08-07T00:26:00.250Z,66.02
2022-08-07T00:27:06.498Z,66.27
2022-08-07T00:27:56.494Z,66.49
2022-08-07T00:28:46.184Z,66.44
2022-08-07T00:29:42.656Z,66.06
2022-08-07T00:30:29.785Z,65.90
2022-08-07T00:31:17.731Z,65.95
2022-08-07T00:32:06.798Z,66.00
2022-08-07T00:32:54.155Z,65.66
2022-08-07T00:33:41.145Z,65.68
2022-08-07T00:34:30.295Z,65.48
2022-08-07T00:35:20.054Z,65.85
2022-08-07T00:36:10.330Z,65.62
2022-08-07T00:36:57.356Z,65.58
2022-08-07T00:37:47.902Z,65.71
2022-08-07T00:38:36.994Z,65.86
2022-08-07T00:39:26.298Z,66.09
2022-08-07T00:40:14.068Z,66.29
2022-08-07T00:41:01.476Z,66.61
2022-08-07T00:42:04.940Z,66.66
2022-08-07T00:42:52.248Z,66.81
2022-08-07T00:44:01.780Z,66.87
2022-08-07T00:44:46.753Z,67.28
2022-08-07T00:45:34.835Z,67.40
2022-08-07T00:46:22.528Z,67.06
2022-08-07T00:48:05.291Z,66.70
2022-08-07T00:48:16.470Z,66.37
2022-08-07T00:49:05.395Z,66.20
2022-08-07T00:50:21.452Z,66.35
2022-08-07T00:51:03.046Z,66.43
2022-08-07T00:51:56.571Z,66.23
2022-08-07T00:52:47.326Z,66.42
2022-08-07T00:53:38.599Z,66.83
2022-08-07T00:54:37.415Z,67.16
2022-08-07T00:56:00.516Z,67.08
2022-08-07T00:56:34.925Z,66.84
2022-08-07T00:57:26.256Z,66.67
2022-08-07T00:58:13.556Z,67.10
2022-08-07T00:59:01.135Z,67.40
2022-08-07T00:59:47.975Z,67.77
2022-08-07T01:00:35.516Z,67.84
2022-08-07T01:01:22.955Z,67.50
2022-08-07T01:02:27.822Z,67.40
2022-08-07T01:03:15.898Z,66.63
2022-08-07T01:04:07.339Z,66.59
2022-08-07T01:04:54.276Z,67.03
2022-08-07T01:05:53.523Z,67.20
2022-08-07T01:06:40.575Z,67.18
2022-08-07T01:07:31.168Z,66.62
2022-08-07T01:08:18.165Z,66.84
2022-08-07T01:09:07.047Z,66.98
2022-08-07T01:10:06.825Z,66.68
2022-08-07T01:10:58.448Z,66.77
2022-08-07T01:12:09.745Z,67.07
2022-08-07T01:13:04.585Z,67.30
2022-08-07T01:13:55.939Z,67.28
2022-08-07T01:14:44.976Z,67.10
2022-08-07T01:15:35.986Z,67.39
2022-08-07T01:16:43.166Z,67.66
2022-08-07T01:17:34.895Z,67.72
2022-08-07T01:18:22.766Z,68.07
2022-08-07T01:19:18.375Z,67.94
2022-08-07T01:20:09.577Z,67.68
2022-08-07T01:21:22.826Z,67.19
2022-08-07T01:22:22.548Z,67.49
2022-08-07T01:23:12.234Z,67.48
2022-08-07T01:24:02.106Z,67.46
2022-08-07T01:24:49.595Z,66.87
2022-08-07T01:25:54.527Z,67.07
2022-08-07T01:26:43.315Z,67.20
2022-08-07T01:27:50.002Z,67.21
2022-08-07T01:28:38.666Z,67.22
2022-08-07T01:29:31.196Z,66.71
2022-08-07T01:30:19.015Z,66.78
2022-08-07T01:31:06.305Z,66.20
2022-08-07T01:31:54.245Z,66.58
2022-08-07T01:32:41.477Z,66.89
2022-08-07T01:33:52.010Z,66.97
2022-08-07T01:34:36.482Z,66.67
2022-08-07T01:35:25.139Z,66.91
2022-08-07T01:36:33.789Z,66.50
2022-08-07T01:37:23.666Z,66.52
2022-08-07T01:38:10.686Z,66.54
2022-08-07T01:38:59.269Z,66.81
2022-08-07T01:39:47.192Z,66.58
2022-08-07T01:40:35.516Z,66.52
2022-08-07T01:41:26.229Z,66.43
2022-08-07T01:42:37.209Z,66.53
2022-08-07T01:43:21.936Z,66.96
2022-08-07T01:44:13.063Z,66.46
2022-08-07T01:44:59.965Z,66.46
2022-08-07T01:45:48.007Z,66.88
2022-08-07T01:46:41.686Z,67.01
2022-08-07T01:48:18.926Z,66.77
2022-08-07T01:48:35.968Z,66.94
2022-08-07T01:49:27.956Z,67.05
2022-08-07T01:50:28.622Z,67.17
2022-08-07T01:52:02.735Z,67.32
2022-08-07T01:52:30.337Z,66.76
2022-08-07T01:53:21.612Z,66.29
2022-08-07T01:54:36.555Z,66.78
2022-08-07T01:55:27.568Z,66.86
2022-08-07T01:56:18.194Z,66.58
2022-08-07T01:57:24.458Z,66.71
2022-08-07T01:58:29.233Z,66.56
2022-08-07T01:59:33.146Z,66.62
2022-08-07T02:00:29.030Z,66.73
2022-08-07T02:01:59.014Z,67.25
2022-08-07T02:03:18.702Z,66.86
2022-08-07T02:03:50.861Z,67.06
2022-08-07T02:05:06.653Z,66.64
2022-08-07T02:06:30.931Z,66.54
2022-08-07T02:07:12.576Z,66.69
2022-08-07T02:08:16.516Z,66.72
2022-08-07T02:09:05.769Z,66.66
2022-08-07T02:09:58.316Z,66.84
2022-08-07T02:10:55.040Z,66.67
2022-08-07T02:12:03.877Z,66.68
2022-08-07T02:12:51.813Z,66.21
2022-08-07T02:13:57.218Z,66.68
2022-08-07T02:14:49.996Z,67.05
2022-08-07T02:15:38.986Z,67.21
2022-08-07T02:16:28.770Z,67.06
2022-08-07T02:17:27.419Z,67.02
2022-08-07T02:18:15.070Z,66.89
2022-08-07T02:20:03.504Z,67.07
2022-08-07T02:20:17.524Z,67.01
2022-08-07T02:21:07.757Z,67.27
2022-08-07T02:22:03.533Z,67.23
2022-08-07T02:23:03.172Z,66.54
2022-08-07T02:23:50.417Z,66.38
2022-08-07T02:24:37.417Z,66.35
2022-08-07T02:26:10.891Z,66.16
2022-08-07T02:26:34.822Z,66.39
2022-08-07T02:27:25.266Z,66.93
2022-08-07T02:28:12.506Z,67.61
2022-08-07T02:29:00.237Z,67.20
2022-08-07T02:29:53.921Z,66.87
2022-08-07T02:30:43.036Z,66.92
2022-08-07T02:31:32.710Z,66.87
2022-08-07T02:32:23.319Z,66.94
2022-08-07T02:33:11.776Z,67.12
2022-08-07T02:34:03.425Z,67.23
2022-08-07T02:34:52.017Z,67.49
2022-08-07T02:36:28.988Z,67.21
2022-08-07T02:36:46.250Z,67.30
2022-08-07T02:37:36.195Z,67.08
2022-08-07T02:38:33.075Z,67.14
2022-08-07T02:39:42.568Z,67.32
2022-08-07T02:40:30.805Z,67.39
2022-08-07T02:41:22.278Z,67.46
2022-08-07T02:42:20.655Z,67.40
2022-08-07T02:43:08.261Z,67.21
2022-08-07T02:43:56.086Z,67.59
2022-08-07T02:44:48.001Z,67.66
2022-08-07T02:46:00.773Z,67.71
2022-08-07T02:46:51.752Z,67.28
2022-08-07T02:47:48.876Z,66.73
2022-08-07T02:48:36.364Z,66.86
2022-08-07T02:49:56.130Z,67.21
2022-08-07T02:50:35.180Z,67.55
2022-08-07T02:51:41.884Z,67.91
2022-08-07T02:52:48.825Z,67.77
2022-08-07T02:53:38.915Z,67.45
2022-08-07T02:54:29.555Z,67.31
2022-08-07T02:55:28.359Z,67.50
2022-08-07T02:56:31.787Z,67.61
2022-08-07T02:57:22.233Z,67.98
2022-08-07T02:58:11.016Z,67.41
2022-08-07T02:59:01.265Z,67.41
2022-08-07T03:00:00.792Z,67.49
2022-08-07T03:00:53.080Z,67.49
2022-08-07T03:01:41.652Z,67.49
2022-08-07T03:02:34.878Z,67.57
2022-08-07T03:03:23.380Z,67.28
2022-08-07T03:04:12.924Z,67.37
2022-08-07T03:05:00.555Z,67.38
2022-08-07T03:05:53.633Z,67.62
2022-08-07T03:06:44.788Z,67.70
2022-08-07T03:08:05.239Z,67.76
2022-08-07T03:08:40.516Z,67.75
2022-08-07T03:09:43.314Z,68.13
2022-08-07T03:10:31.767Z,68.38
2022-08-07T03:11:18.856Z,68.35
2022-08-07T03:12:22.310Z,68.23
2022-08-07T03:13:19.536Z,67.90
2022-08-07T03:14:07.425Z,67.45
2022-08-07T03:14:56.426Z,67.45
2022-08-07T03:15:55.549Z,67.28
2022-08-07T03:16:43.747Z,67.47
2022-08-07T03:17:31.276Z,67.74
2022-08-07T03:18:24.437Z,67.90
2022-08-07T03:19:21.417Z,67.95
2022-08-07T03:20:09.397Z,68.19
2022-08-07T03:20:59.668Z,67.71
2022-08-07T03:21:50.590Z,67.25
2022-08-07T03:22:38.827Z,67.17
2022-08-07T03:23:33.401Z,67.75
2022-08-07T03:24:27.024Z,67.87
2022-08-07T03:25:15.118Z,67.41
2022-08-07T03:26:08.268Z,67.62
2022-08-07T03:27:09.025Z,67.19
2022-08-07T03:28:08.969Z,67.00
2022-08-07T03:29:06.496Z,67.45
2022-08-07T03:29:58.888Z,67.42
2022-08-07T03:30:46.627Z,66.98
2022-08-07T03:31:43.401Z,67.00
2022-08-07T03:32:57.022Z,66.93
2022-08-07T03:33:51.667Z,66.98
2022-08-07T03:34:39.606Z,67.34
2022-08-07T03:35:43.483Z,67.51
2022-08-07T03:36:38.778Z,67.41
2022-08-07T03:37:27.677Z,66.66
2022-08-07T03:38:15.697Z,66.62
2022-08-07T03:39:08.931Z,66.86
2022-08-07T03:40:13.340Z,67.14
2022-08-07T03:41:03.922Z,67.08
2022-08-07T03:41:53.176Z,67.03
2022-08-07T03:42:40.399Z,67.08
2022-08-07T03:43:32.402Z,67.38
2022-08-07T03:44:21.667Z,67.17
2022-08-07T03:45:29.865Z,66.89
2022-08-07T03:46:18.785Z,66.99
2022-08-07T03:47:13.777Z,67.00
2022-08-07T03:48:01.951Z,67.03
2022-08-07T03:49:03.051Z,67.08
2022-08-07T03:49:53.424Z,67.30
2022-08-07T03:50:43.125Z,67.12
2022-08-07T03:51:47.154Z,67.25
2022-08-07T03:52:35.457Z,67.36
2022-08-07T03:53:50.040Z,67.62
2022-08-07T03:54:35.335Z,67.61
2022-08-07T03:55:23.646Z,67.37
2022-08-07T03:56:33.402Z,67.34
2022-08-07T03:58:33.205Z,67.30
2022-08-07T03:59:05.521Z,67.19
2022-08-07T03:59:36.828Z,67.33
2022-08-07T04:00:35.395Z,67.28
2022-08-07T04:01:23.501Z,67.08
2022-08-07T04:02:10.448Z,67.07
2022-08-07T04:02:57.339Z,66.74
2022-08-07T04:03:49.895Z,66.75
2022-08-07T04:04:43.050Z,66.90
2022-08-07T04:05:40.375Z,66.91
2022-08-07T04:06:37.067Z,67.36
2022-08-07T04:07:24.926Z,66.98
2022-08-07T04:08:16.345Z,66.85
2022-08-07T04:09:08.503Z,66.72
2022-08-07T04:10:03.388Z,66.66
2022-08-07T04:10:54.445Z,66.36
2022-08-07T04:12:28.181Z,66.38
2022-08-07T04:13:04.898Z,66.93
2022-08-07T04:14:11.008Z,66.64
2022-08-07T04:14:59.499Z,66.75
2022-08-07T04:15:48.950Z,66.88
2022-08-07T04:16:37.244Z,66.61
2022-08-07T04:18:30.690Z,66.34
2022-08-07T04:18:59.896Z,66.03
2022-08-07T04:19:52.795Z,66.13
2022-08-07T04:20:54.352Z,66.47
2022-08-07T04:21:59.479Z,66.22
2022-08-07T04:22:53.731Z,65.90
2022-08-07T04:24:06.958Z,65.26
2022-08-07T04:24:54.842Z,65.38
2022-08-07T04:25:45.826Z,65.95
2022-08-07T04:26:38.515Z,66.03
2022-08-07T04:27:35.525Z,66.01
2022-08-07T04:28:23.315Z,65.95
2022-08-07T04:29:12.305Z,65.50
2022-08-07T04:30:04.561Z,65.70
2022-08-07T04:30:57.157Z,65.53
2022-08-07T04:32:03.061Z,65.48
2022-08-07T04:32:58.184Z,65.37
2022-08-07T04:33:46.225Z,65.57
2022-08-07T04:34:37.746Z,64.54
2022-08-07T04:35:26.518Z,64.94
2022-08-07T04:36:14.746Z,65.10
2022-08-07T04:37:01.667Z,65.06
2022-08-07T04:38:03.181Z,64.56
2022-08-07T04:38:53.647Z,64.72
2022-08-07T04:39:47.927Z,64.38
2022-08-07T04:40:51.322Z,64.57
2022-08-07T04:41:39.865Z,64.01
2022-08-07T04:42:32.076Z,63.99
2022-08-07T04:44:09.887Z,63.80
2022-08-07T04:44:29.887Z,63.98
2022-08-07T04:45:44.437Z,63.76
2022-08-07T04:47:04.131Z,63.77
2022-08-07T04:48:10.705Z,64.02
2022-08-07T04:49:24.717Z,63.61
2022-08-07T04:50:18.118Z,63.92
2022-08-07T04:51:16.718Z,64.13
2022-08-07T04:52:08.086Z,63.43
2022-08-07T04:53:03.214Z,62.76
2022-08-07T04:54:02.049Z,62.72
2022-08-07T04:58:07.494Z,62.91
2022-08-07T04:58:09.707Z,63.00
2022-08-07T04:58:11.332Z,62.95
2022-08-07T05:00:08.085Z,62.75
2022-08-07T05:00:30.776Z,61.88
2022-08-07T05:01:54.278Z,62.25
2022-08-07T05:03:16.706Z,62.67
2022-08-07T05:04:17.409Z,62.11
2022-08-07T05:05:53.537Z,62.05
2022-08-07T05:06:23.158Z,60.92
2022-08-07T05:07:20.997Z,61.37
2022-08-07T05:08:16.567Z,61.23
2022-08-07T05:09:46.267Z,61.25
2022-08-07T05:10:39.727Z,60.36
2022-08-07T05:11:57.007Z,59.70
2022-08-07T05:12:46.193Z,59.71
2022-08-07T05:14:52.592Z,59.97
2022-08-07T05:15:23.544Z,59.91
2022-08-07T05:16:12.655Z,59.37
2022-08-07T05:17:05.873Z,59.01
2022-08-07T05:18:01.567Z,58.97
2022-08-07T05:19:01.111Z,58.47
2022-08-07T05:19:50.407Z,58.29
2022-08-07T05:20:42.882Z,58.22
2022-08-07T05:22:00.548Z,58.42
2022-08-07T05:22:38.607Z,58.48
2022-08-07T05:23:31.108Z,58.23
2022-08-07T05:24:24.578Z,58.04
2022-08-07T05:25:26.324Z,56.98
2022-08-07T05:26:28.336Z,56.98
2022-08-07T05:28:03.270Z,57.04
2022-08-07T05:28:26.756Z,56.88
2022-08-07T05:29:15.950Z,56.53
2022-08-07T05:30:03.566Z,55.66
2022-08-07T05:30:52.846Z,55.54
2022-08-07T05:31:41.106Z,55.14
2022-08-07T05:32:38.868Z,54.58
2022-08-07T05:33:28.208Z,53.95
2022-08-07T05:34:17.116Z,53.35
2022-08-07T05:35:06.547Z,52.61
2022-08-07T05:35:53.727Z,52.14
2022-08-07T05:36:52.805Z,52.18
2022-08-07T05:37:42.445Z,52.97
2022-08-07T05:38:59.954Z,52.63
2022-08-07T05:40:16.512Z,52.54
2022-08-07T05:40:51.530Z,51.90
2022-08-07T05:42:01.634Z,51.89
2022-08-07T05:42:55.996Z,51.59
2022-08-07T05:44:08.507Z,51.87
2022-08-07T05:45:14.854Z,52.25
2022-08-07T05:46:02.292Z,51.81
2022-08-07T05:46:51.316Z,51.96
2022-08-07T05:48:02.017Z,51.97
2022-08-07T05:48:58.115Z,51.63
2022-08-07T05:49:49.146Z,51.29
2022-08-07T05:50:39.630Z,51.30
2022-08-07T05:51:31.799Z,51.58
2022-08-07T05:52:20.679Z,51.35
2022-08-07T05:54:12.381Z,50.51
2022-08-07T05:54:44.173Z,51.19
2022-08-07T05:56:03.681Z,51.12
2022-08-07T05:56:43.838Z,51.10
2022-08-07T05:57:34.712Z,50.77
2022-08-07T05:58:36.215Z,50.27
2022-08-07T05:59:25.725Z,50.57
2022-08-07T06:00:16.707Z,49.56
2022-08-07T06:01:08.485Z,49.87
2022-08-07T06:01:58.479Z,50.37
2022-08-07T06:02:49.507Z,50.02
2022-08-07T06:03:53.858Z,50.20
2022-08-07T06:04:50.808Z,50.09
2022-08-07T06:05:37.860Z,48.90
2022-08-07T06:06:29.806Z,48.84
2022-08-07T06:07:22.819Z,49.23
2022-08-07T06:08:29.424Z,48.80
2022-08-07T06:09:17.246Z,49.62
2022-08-07T06:10:06.187Z,49.94
2022-08-07T06:10:58.435Z,49.85
2022-08-07T06:11:45.738Z,49.33
2022-08-07T06:12:34.507Z,47.94
2022-08-07T06:14:10.473Z,47.40
2022-08-07T06:14:30.206Z,47.15
2022-08-07T06:15:19.725Z,47.36
2022-08-07T06:16:07.747Z,47.29
2022-08-07T06:16:57.311Z,46.67
2022-08-07T06:17:53.952Z,46.83
2022-08-07T06:18:43.168Z,47.37
2022-08-07T06:19:47.904Z,47.83
2022-08-07T06:20:50.968Z,48.06
2022-08-07T06:22:14.391Z,48.44
2022-08-07T06:23:25.206Z,47.83
2022-08-07T06:24:45.541Z,48.29
2022-08-07T06:25:16.919Z,47.77
2022-08-07T06:26:06.038Z,48.08
2022-08-07T06:26:53.957Z,48.76
2022-08-07T06:27:59.834Z,48.65
2022-08-07T06:28:53.094Z,48.45
2022-08-07T06:29:40.057Z,48.48
2022-08-07T06:30:35.948Z,48.66
2022-08-07T06:31:49.398Z,48.41
2022-08-07T06:32:32.673Z,48.87
2022-08-07T06:33:19.967Z,48.34
2022-08-07T06:34:09.577Z,48.69
2022-08-07T06:34:56.698Z,48.48
2022-08-07T06:35:47.715Z,48.82
2022-08-07T06:36:51.804Z,49.13
2022-08-07T06:37:43.378Z,50.14
2022-08-07T06:38:31.030Z,50.35
2022-08-07T06:40:16.427Z,50.65
2022-08-07T06:40:27.836Z,50.94
2022-08-07T06:41:55.484Z,50.94
2022-08-07T06:42:40.366Z,49.70
2022-08-07T06:43:39.230Z,49.83
2022-08-07T06:44:33.945Z,49.85
2022-08-07T06:45:23.426Z,50.08
2022-08-07T06:46:12.245Z,48.79
2022-08-07T06:47:12.343Z,49.16
2022-08-07T06:48:03.762Z,48.50
2022-08-07T06:48:50.828Z,48.50
2022-08-07T06:49:51.484Z,48.57
2022-08-07T06:50:43.379Z,47.77
2022-08-07T06:51:49.849Z,47.64
2022-08-07T06:52:38.736Z,47.65
2022-08-07T06:55:29.987Z,47.58
2022-08-07T06:55:33.879Z,47.11
2022-08-07T06:56:00.197Z,46.09
2022-08-07T06:56:50.730Z,46.04
2022-08-07T06:57:39.627Z,45.97
2022-08-07T06:58:35.746Z,46.26
2022-08-07T07:00:12.383Z,45.94
2022-08-07T07:00:52.746Z,45.33
2022-08-07T07:01:48.732Z,45.07
2022-08-07T07:02:53.354Z,44.01
2022-08-07T07:03:49.961Z,44.33
2022-08-07T07:04:54.763Z,44.48
2022-08-07T07:06:05.214Z,44.43
2022-08-07T07:07:00.043Z,43.63
2022-08-07T07:07:59.357Z,43.67
2022-08-07T07:08:53.406Z,43.57
2022-08-07T07:09:49.518Z,43.52
2022-08-07T07:10:37.670Z,43.79
2022-08-07T07:12:08.518Z,44.02
2022-08-07T07:12:53.538Z,44.79
2022-08-07T07:13:57.833Z,45.52
2022-08-07T07:14:53.783Z,45.83
2022-08-07T07:15:51.390Z,45.57
2022-08-07T07:16:49.935Z,45.50
2022-08-07T07:18:33.045Z,44.90
2022-08-07T07:19:55.286Z,44.73
2022-08-07T07:20:48.096Z,44.59
2022-08-07T07:21:40.425Z,44.67
2022-08-07T07:24:08.317Z,44.48
2022-08-07T07:24:11.127Z,44.54
2022-08-07T07:25:02.830Z,45.85
2022-08-07T07:26:35.672Z,45.00
2022-08-07T07:27:12.147Z,45.36
2022-08-07T07:28:42.020Z,46.17
2022-08-07T07:29:56.535Z,46.36
2022-08-07T07:30:38.480Z,47.00
2022-08-07T07:31:39.928Z,46.57
2022-08-07T07:32:32.394Z,46.77
2022-08-07T07:33:20.119Z,46.60
2022-08-07T07:34:11.830Z,46.62
2022-08-07T07:35:03.976Z,46.08
2022-08-07T07:36:04.455Z,46.15
2022-08-07T07:36:54.202Z,47.04
2022-08-07T07:37:47.488Z,47.41
2022-08-07T07:38:41.727Z,47.00
2022-08-07T07:39:35.862Z,48.04
2022-08-07T07:40:40.737Z,47.81
2022-08-07T07:41:50.310Z,47.88
2022-08-07T07:42:37.048Z,48.13
2022-08-07T07:43:27.667Z,48.24
2022-08-07T07:44:34.087Z,47.68
2022-08-07T07:46:37.201Z,47.69
2022-08-07T07:46:53.649Z,48.00
2022-08-07T07:47:52.715Z,47.06
2022-08-07T07:48:40.445Z,47.85
2022-08-07T07:50:33.641Z,47.73
2022-08-07T07:50:40.235Z,48.33
2022-08-07T07:51:28.846Z,48.20
2022-08-07T07:52:37.023Z,48.10
2022-08-07T07:53:25.807Z,47.09
2022-08-07T07:54:14.574Z,47.21
2022-08-07T07:55:03.718Z,47.35
2022-08-07T07:56:00.944Z,46.92
2022-08-07T07:56:49.338Z,47.78
2022-08-07T07:57:51.518Z,47.57
2022-08-07T07:58:41.648Z,46.32
2022-08-07T07:59:52.882Z,46.57
2022-08-07T08:00:36.005Z,46.68
2022-08-07T08:02:02.378Z,46.17
2022-08-07T08:02:35.430Z,46.45
2022-08-07T08:04:06.004Z,47.25
2022-08-07T08:04:32.751Z,46.01
2022-08-07T08:05:22.360Z,45.78
2022-08-07T08:06:16.036Z,45.42
2022-08-07T08:07:07.762Z,45.63
2022-08-07T08:08:00.881Z,45.60
2022-08-07T08:08:49.527Z,45.36
2022-08-07T08:09:51.766Z,45.47
2022-08-07T08:10:47.880Z,44.45
2022-08-07T08:11:59.365Z,44.06
2022-08-07T08:12:58.904Z,43.70
2022-08-07T08:13:54.929Z,43.82
2022-08-07T08:14:42.836Z,43.33
2022-08-07T08:15:58.108Z,43.33
2022-08-07T08:16:50.681Z,43.27
2022-08-07T08:17:57.286Z,43.35
2022-08-07T08:18:45.659Z,42.96
2022-08-07T08:20:16.943Z,42.27
2022-08-07T08:20:45.629Z,42.28
2022-08-07T08:22:03.123Z,42.15
2022-08-07T08:23:10.893Z,41.66
2022-08-07T08:24:36.207Z,41.06
2022-08-07T08:27:09.457Z,41.76
2022-08-07T08:27:20.480Z,40.87
2022-08-07T08:28:03.722Z,40.72
2022-08-07T08:28:53.463Z,41.78
2022-08-07T08:29:55.944Z,42.54
2022-08-07T08:30:51.475Z,41.55
2022-08-07T08:31:59.137Z,41.93
2022-08-07T08:32:59.786Z,40.86
2022-08-07T08:33:49.275Z,41.05
2022-08-07T08:34:36.896Z,41.22
2022-08-07T08:35:28.691Z,40.85
2022-08-07T08:36:16.658Z,40.89
2022-08-07T08:37:09.993Z,40.14
2022-08-07T08:38:13.977Z,41.05
2022-08-07T08:39:06.530Z,40.39
2022-08-07T08:39:58.334Z,40.49
2022-08-07T08:40:50.488Z,40.43
2022-08-07T08:41:56.697Z,41.27
2022-08-07T08:42:54.587Z,41.03
2022-08-07T08:44:04.216Z,41.47
2022-08-07T08:45:14.146Z,40.86
2022-08-07T08:46:45.008Z,40.21
2022-08-07T08:47:52.759Z,40.55
2022-08-07T08:49:05.697Z,40.79
2022-08-07T08:50:04.718Z,41.08
2022-08-07T08:50:59.028Z,41.03
2022-08-07T08:52:19.160Z,41.92
2022-08-07T08:53:30.687Z,42.32
2022-08-07T08:54:24.949Z,41.61
2022-08-07T08:55:55.515Z,41.48
2022-08-07T08:56:48.427Z,42.07
2022-08-07T08:57:40.677Z,42.99
2022-08-07T08:58:54.610Z,43.55
2022-08-07T08:59:54.998Z,42.26
2022-08-07T09:00:57.934Z,42.35
2022-08-07T09:02:08.869Z,41.90
2022-08-07T09:03:11.887Z,42.43
2022-08-07T09:04:31.887Z,41.45
2022-08-07T09:05:47.118Z,41.34
2022-08-07T09:06:40.364Z,41.38
2022-08-07T09:07:57.452Z,41.11
2022-08-07T09:09:00.527Z,41.64
2022-08-07T09:09:59.117Z,40.81
2022-08-07T09:10:57.746Z,41.08
2022-08-07T09:12:20.295Z,42.43
2022-08-07T09:13:11.180Z,42.97
2022-08-07T09:14:18.517Z,42.67
2022-08-07T09:16:23.468Z,42.27
2022-08-07T09:16:52.196Z,41.52
2022-08-07T09:17:59.473Z,41.32
2022-08-07T09:19:50.786Z,41.72
2022-08-07T09:20:35.334Z,41.30
2022-08-07T09:21:34.457Z,40.95
2022-08-07T09:24:31.268Z,41.39
2022-08-07T09:24:34.200Z,40.34
2022-08-07T09:25:24.687Z,41.46
2022-08-07T09:26:20.647Z,40.59
2022-08-07T09:27:22.666Z,40.45
2022-08-07T09:30:04.031Z,39.47
2022-08-07T09:30:04.319Z,40.01
2022-08-07T09:31:17.667Z,40.81
2022-08-07T09:32:17.127Z,39.78
2022-08-07T09:33:52.350Z,40.00
2022-08-07T09:36:04.846Z,39.76
2022-08-07T09:36:35.875Z,40.90
2022-08-07T09:37:53.507Z,39.87
2022-08-07T09:39:11.415Z,40.69
2022-08-07T09:40:27.066Z,40.69
2022-08-07T09:41:58.449Z,41.17
2022-08-07T09:43:04.598Z,41.81
2022-08-07T09:44:19.253Z,43.00
2022-08-07T09:47:23.455Z,42.57
2022-08-07T09:47:49.988Z,42.72
2022-08-07T09:48:29.761Z,43.01
2022-08-07T09:50:02.566Z,42.58
2022-08-07T09:52:16.385Z,41.79
2022-08-07T09:52:34.153Z,41.69
2022-08-07T09:53:23.487Z,42.69
2022-08-07T09:54:19.305Z,42.76
2022-08-07T09:55:29.736Z,43.38
2022-08-07T09:56:39.291Z,42.63
2022-08-07T09:57:57.166Z,43.58
2022-08-07T09:59:07.534Z,43.71
2022-08-07T10:00:14.464Z,44.06
2022-08-07T10:01:51.200Z,44.46
2022-08-07T10:02:55.614Z,44.03
2022-08-07T10:04:28.086Z,44.23
2022-08-07T10:06:00.855Z,44.61
2022-08-07T10:07:24.178Z,44.77
2022-08-07T10:08:32.610Z,44.47
2022-08-07T10:10:00.607Z,44.91
2022-08-07T10:11:59.180Z,44.53
2022-08-07T10:12:35.238Z,44.69
2022-08-07T10:14:01.003Z,45.28
2022-08-07T10:15:06.957Z,45.20
2022-08-07T10:16:21.070Z,44.90
2022-08-07T10:17:10.550Z,45.03
2022-08-07T10:18:15.725Z,44.18
2022-08-07T10:19:21.748Z,44.79
2022-08-07T10:20:30.408Z,44.67
2022-08-07T10:22:14.472Z,43.89
2022-08-07T10:23:17.276Z,44.52
2022-08-07T10:24:33.492Z,43.41
2022-08-07T10:25:55.165Z,44.04
2022-08-07T10:27:10.391Z,43.78
2022-08-07T10:28:15.712Z,44.04
2022-08-07T10:29:11.840Z,44.54
2022-08-07T10:30:12.157Z,43.67
2022-08-07T10:31:11.196Z,44.09
2022-08-07T10:32:51.153Z,44.60
2022-08-07T10:34:27.335Z,44.09
2022-08-07T10:35:53.313Z,44.31
2022-08-07T10:37:05.748Z,44.69
2022-08-07T10:38:21.263Z,45.51
2022-08-07T10:39:41.263Z,44.90
2022-08-07T10:40:36.894Z,44.99
2022-08-07T10:41:47.355Z,44.33
2022-08-07T10:42:52.933Z,44.41
2022-08-07T10:44:08.686Z,44.11
2022-08-07T10:45:44.963Z,43.61
2022-08-07T10:46:31.086Z,44.03
2022-08-07T10:47:53.339Z,44.46
2022-08-07T10:49:49.622Z,43.85
2022-08-07T10:50:50.187Z,43.31
2022-08-07T10:52:01.950Z,44.52
2022-08-07T10:53:12.650Z,43.93
2022-08-07T10:54:08.737Z,43.54
2022-08-07T10:55:27.142Z,43.41
2022-08-07T10:56:31.545Z,43.42
2022-08-07T10:57:34.307Z,43.38
2022-08-07T10:59:00.259Z,43.12
2022-08-07T10:59:52.992Z,43.96
2022-08-07T11:00:56.646Z,43.96
2022-08-07T11:02:32.795Z,43.99
2022-08-07T11:03:37.854Z,43.94
2022-08-07T11:04:51.326Z,43.87
2022-08-07T11:06:06.508Z,43.39
2022-08-07T11:07:24.710Z,43.09
2022-08-07T11:08:30.257Z,42.49
2022-08-07T11:10:08.832Z,42.98
2022-08-07T11:10:55.395Z,43.17
2022-08-07T11:11:52.168Z,42.72
2022-08-07T11:13:02.038Z,42.69
2022-08-07T11:14:45.487Z,43.25
2022-08-07T11:15:14.785Z,42.88
2022-08-07T11:16:19.570Z,42.53
2022-08-07T11:17:11.832Z,43.44
2022-08-07T11:18:24.492Z,42.92
2022-08-07T11:19:27.611Z,42.66
2022-08-07T11:20:19.190Z,42.58
2022-08-07T11:21:28.626Z,42.73
2022-08-07T11:22:45.522Z,41.83
2022-08-07T11:23:36.381Z,41.28
2022-08-07T11:24:45.654Z,41.51
2022-08-07T11:25:47.963Z,40.59
2022-08-07T11:26:50.290Z,41.13
2022-08-07T11:28:15.482Z,41.18
2022-08-07T11:29:13.209Z,41.33
2022-08-07T11:30:19.401Z,41.79
2022-08-07T11:31:39.418Z,42.13
2022-08-07T11:32:53.656Z,40.76
2022-08-07T11:33:54.313Z,40.70
2022-08-07T11:35:02.738Z,41.16
2022-08-07T11:36:15.627Z,41.60
2022-08-07T11:37:24.428Z,41.74
2022-08-07T11:39:07.715Z,42.07
2022-08-07T11:40:10.541Z,42.27
2022-08-07T11:41:18.238Z,42.54
2022-08-07T11:42:44.586Z,43.13
2022-08-07T11:43:54.722Z,42.61
2022-08-07T11:45:13.587Z,42.46
2022-08-07T11:46:20.474Z,41.69
2022-08-07T11:47:26.146Z,41.96
2022-08-07T11:49:27.416Z,41.71
2022-08-07T11:50:31.896Z,41.94
2022-08-07T11:51:47.042Z,42.73
2022-08-07T11:53:05.253Z,42.31
2022-08-07T11:54:01.096Z,42.46
2022-08-07T11:56:25.130Z,43.05
2022-08-07T11:57:04.018Z,42.77
2022-08-07T11:58:03.684Z,42.17
2022-08-07T12:00:12.652Z,42.28
2022-08-07T12:01:01.855Z,42.03
2022-08-07T12:02:35.445Z,42.29
2022-08-07T12:03:48.825Z,41.95
2022-08-07T12:04:46.435Z,42.11
2022-08-07T12:05:49.110Z,41.57
2022-08-07T12:07:00.348Z,41.90
2022-08-07T12:08:31.914Z,42.21
2022-08-07T12:09:37.073Z,41.67
2022-08-07T12:11:00.898Z,42.36
2022-08-07T12:12:12.175Z,41.95
2022-08-07T12:13:36.630Z,42.56
2022-08-07T12:14:27.864Z,42.37
2022-08-07T12:15:35.924Z,42.42
2022-08-07T12:16:30.821Z,41.77
2022-08-07T12:17:22.152Z,41.86
2022-08-07T12:18:16.073Z,42.26
2022-08-07T12:19:35.943Z,42.80
2022-08-07T12:21:05.892Z,42.50
2022-08-07T12:22:37.767Z,42.24
2022-08-07T12:24:05.688Z,42.08
2022-08-07T12:26:02.976Z,42.02
2022-08-07T12:26:46.977Z,42.19
2022-08-07T12:28:09.925Z,41.74
2022-08-07T12:29:02.714Z,42.20
2022-08-07T12:30:16.903Z,42.81
2022-08-07T12:31:52.390Z,41.97
2022-08-07T12:33:18.610Z,42.88
2022-08-07T12:34:11.024Z,42.69
2022-08-07T12:34:59.525Z,42.07
2022-08-07T12:35:57.910Z,42.42
2022-08-07T12:36:50.025Z,42.36
2022-08-07T12:38:08.622Z,42.28
2022-08-07T12:38:57.507Z,41.76
2022-08-07T12:39:50.973Z,41.94
2022-08-07T12:40:50.243Z,42.50
2022-08-07T12:41:49.565Z,42.98
2022-08-07T12:42:39.822Z,41.57
2022-08-07T12:44:01.966Z,42.16
2022-08-07T12:44:52.333Z,42.13
2022-08-07T12:45:52.519Z,42.64
2022-08-07T12:47:21.850Z,42.17
2022-08-07T12:48:27.872Z,42.16
2022-08-07T12:49:48.656Z,42.14
2022-08-07T12:50:58.016Z,41.51
2022-08-07T12:52:12.219Z,42.47
2022-08-07T12:53:17.780Z,41.91
2022-08-07T12:54:36.933Z,42.21
2022-08-07T12:55:41.408Z,42.28
2022-08-07T12:56:50.910Z,41.86
2022-08-07T12:58:01.263Z,42.07
2022-08-07T12:58:53.193Z,41.35
2022-08-07T12:59:54.186Z,42.12